Time;durP1;ratioP1;P1;durP2;ratioP2;P2;SDS_P1;SDS_P2;PMS_P1;PMS_P2;Temp;Humidity;BMP_temperature;BMP_pressure;BME280_temperature;BME280_humidity;BME280_pressure;Samples;Min_cycle;Max_cycle;Signal;HPM_P1;HPM_P2
2021/07/29 00:01:04;;;;;;;5.10;4.70;;;16.70;99.90;;;;;;5039789;28;20455;-87
2021/07/29 00:03:31;;;;;;;5.23;4.83;;;16.70;99.90;;;;;;5038526;28;20483;-86
2021/07/29 00:05:59;;;;;;;3.90;3.60;;;16.70;99.90;;;;;;5039476;28;20450;-86
2021/07/29 00:08:25;;;;;;;5.60;5.10;;;16.70;99.90;;;;;;5039753;28;20961;-85
2021/07/29 00:10:52;;;;;;;5.03;4.50;;;16.60;99.90;;;;;;5039415;28;20458;-87
2021/07/29 00:13:20;;;;;;;6.43;5.83;;;16.60;99.90;;;;;;5038994;28;20458;-86
2021/07/29 00:15:47;;;;;;;5.53;5.10;;;16.60;99.90;;;;;;5039630;28;20459;-86
2021/07/29 00:20:59;;;;;;;4.63;4.20;;;16.50;99.90;;;;;;5040085;28;20421;-83
2021/07/29 00:23:25;;;;;;;5.60;5.10;;;16.50;99.90;;;;;;5040403;28;20485;-84
2021/07/29 00:25:52;;;;;;;5.63;5.03;;;16.30;99.90;;;;;;5040011;28;20453;-83
2021/07/29 00:28:19;;;;;;;5.83;5.33;;;16.30;99.90;;;;;;5040497;28;20478;-85
2021/07/29 00:30:45;;;;;;;6.63;5.60;;;16.30;99.90;;;;;;5040210;28;20442;-84
2021/07/29 00:33:12;;;;;;;6.33;5.73;;;16.30;99.90;;;;;;5039776;28;20445;-84
2021/07/29 00:35:39;;;;;;;5.00;4.60;;;16.30;99.90;;;;;;5039809;28;20453;-84
2021/07/29 00:38:07;;;;;;;5.50;5.00;;;16.30;99.90;;;;;;5040446;28;20838;-83
2021/07/29 00:40:34;;;;;;;6.20;5.60;;;16.30;99.90;;;;;;5039263;28;20446;-84
2021/07/29 00:43:01;;;;;;;6.60;5.90;;;16.20;99.90;;;;;;5037601;28;21036;-84
2021/07/29 00:45:28;;;;;;;5.93;5.33;;;16.20;99.90;;;;;;5039076;28;20986;-84
2021/07/29 00:47:55;;;;;;;6.53;5.93;;;16.30;99.90;;;;;;5039613;28;20866;-83
2021/07/29 00:50:22;;;;;;;5.33;4.30;;;16.30;99.90;;;;;;5040624;28;20453;-83
2021/07/29 00:52:49;;;;;;;6.90;5.03;;;16.20;99.90;;;;;;5039933;28;20442;-84
2021/07/29 00:55:20;;;;;;;8.87;5.67;;;16.20;99.90;;;;;;5038637;28;20863;-84
2021/07/29 00:57:46;;;;;;;5.27;4.77;;;16.30;99.90;;;;;;5039036;28;20492;-83
2021/07/29 01:00:14;;;;;;;5.80;4.33;;;16.30;99.90;;;;;;5038473;28;20480;-87
2021/07/29 01:02:41;;;;;;;4.60;4.27;;;16.30;99.90;;;;;;5038145;28;20481;-84
2021/07/29 01:05:09;;;;;;;4.93;4.53;;;16.30;99.90;;;;;;5037648;28;20458;-85
2021/07/29 01:07:36;;;;;;;4.27;3.97;;;16.30;99.90;;;;;;5038164;28;20477;-85
2021/07/29 01:10:05;;;;;;;5.70;5.10;;;16.30;99.90;;;;;;5038982;28;20458;-84
2021/07/29 01:12:33;;;;;;;5.00;4.60;;;16.30;99.90;;;;;;5037995;28;20484;-86
2021/07/29 01:15:00;;;;;;;5.83;5.23;;;16.20;99.90;;;;;;5038074;28;20832;-84
2021/07/29 01:17:30;;;;;;;6.70;4.43;;;16.20;99.90;;;;;;5038373;28;20861;-84
2021/07/29 01:19:58;;;;;;;5.60;5.13;;;16.10;99.90;;;;;;5038529;28;20486;-84
2021/07/29 01:22:30;;;;;;;5.10;4.60;;;16.10;99.90;;;;;;5038022;28;20450;-84
2021/07/29 01:24:57;;;;;;;6.33;5.73;;;16.10;99.90;;;;;;5038072;28;20454;-84
2021/07/29 01:27:23;;;;;;;4.77;4.37;;;16.20;99.90;;;;;;5038962;28;20666;-84
2021/07/29 01:29:50;;;;;;;6.67;6.03;;;16.10;99.90;;;;;;5038872;28;20539;-84
2021/07/29 01:32:17;;;;;;;5.40;4.97;;;16.00;99.90;;;;;;5038614;28;20456;-84
2021/07/29 01:34:43;;;;;;;5.37;4.83;;;15.80;99.90;;;;;;5038685;28;20441;-84
2021/07/29 01:37:10;;;;;;;5.43;4.93;;;15.90;99.90;;;;;;5038389;28;20475;-84
2021/07/29 01:39:38;;;;;;;6.00;5.40;;;16.00;99.90;;;;;;5038014;28;20449;-84
2021/07/29 01:42:06;;;;;;;4.50;4.10;;;16.00;99.90;;;;;;5038714;28;20452;-84
2021/07/29 01:44:32;;;;;;;5.20;4.80;;;16.00;99.90;;;;;;5038028;28;20497;-84
2021/07/29 01:46:59;;;;;;;5.90;4.70;;;16.10;99.90;;;;;;5037958;28;20841;-84
2021/07/29 01:49:26;;;;;;;4.60;4.00;;;16.10;99.90;;;;;;5037100;28;20453;-84
2021/07/29 01:51:53;;;;;;;6.03;5.43;;;16.10;99.90;;;;;;5037402;28;20557;-84
2021/07/29 01:54:19;;;;;;;4.87;4.40;;;16.10;99.90;;;;;;5036593;28;20442;-84
2021/07/29 01:56:47;;;;;;;4.30;4.00;;;16.10;99.90;;;;;;5036978;28;20469;-84
2021/07/29 01:59:14;;;;;;;4.67;4.37;;;16.10;99.90;;;;;;5037104;28;20453;-84
2021/07/29 02:01:41;;;;;;;5.00;4.53;;;16.00;99.90;;;;;;5036715;28;20473;-85
2021/07/29 02:04:08;;;;;;;5.70;5.10;;;16.00;99.90;;;;;;5035817;28;20481;-85
2021/07/29 02:06:37;;;;;;;6.00;4.73;;;16.00;99.90;;;;;;5036669;28;20519;-85
2021/07/29 02:09:04;;;;;;;5.03;4.20;;;16.00;99.90;;;;;;5037538;28;20481;-84
2021/07/29 02:11:32;;;;;;;5.57;5.07;;;16.00;99.90;;;;;;5037464;28;20462;-86
2021/07/29 02:14:01;;;;;;;6.00;5.40;;;16.00;99.90;;;;;;5038374;28;20487;-84
2021/07/29 02:16:28;;;;;;;5.60;5.10;;;15.90;99.90;;;;;;5037943;28;20484;-85
2021/07/29 02:18:55;;;;;;;5.53;5.03;;;15.90;99.90;;;;;;5037836;28;20468;-85
2021/07/29 02:21:22;;;;;;;5.77;5.27;;;15.90;99.90;;;;;;5037864;28;20454;-85
2021/07/29 02:23:48;;;;;;;5.80;5.30;;;15.90;99.90;;;;;;5037989;28;20485;-86
2021/07/29 02:26:15;;;;;;;5.17;4.87;;;15.90;99.90;;;;;;5037334;28;20985;-84
2021/07/29 02:28:43;;;;;;;5.23;4.73;;;15.90;99.90;;;;;;5037653;28;20463;-85
2021/07/29 02:31:11;;;;;;;4.67;4.20;;;15.90;99.90;;;;;;5038598;28;20452;-85
2021/07/29 02:33:38;;;;;;;5.80;5.20;;;15.80;99.90;;;;;;5038535;28;20458;-85
2021/07/29 02:36:06;;;;;;;5.60;5.20;;;15.80;99.90;;;;;;5039734;28;20441;-85
2021/07/29 02:38:32;;;;;;;5.87;5.30;;;15.80;99.90;;;;;;5038493;28;20456;-84
2021/07/29 02:41:00;;;;;;;5.80;5.30;;;15.90;99.90;;;;;;5039135;28;20457;-85
2021/07/29 02:43:26;;;;;;;6.00;5.40;;;15.80;99.90;;;;;;5038427;28;20853;-84
2021/07/29 02:45:53;;;;;;;6.03;5.53;;;15.80;99.90;;;;;;5038833;28;20449;-86
2021/07/29 02:48:21;;;;;;;5.40;4.90;;;15.80;99.90;;;;;;5038579;28;20477;-84
2021/07/29 02:50:55;;;;;;;6.27;5.03;;;15.80;99.90;;;;;;5038219;28;20449;-85
2021/07/29 02:53:25;;;;;;;5.40;5.00;;;15.80;99.90;;;;;;5038734;28;20437;-84
2021/07/29 02:55:57;;;;;;;5.67;4.70;;;15.80;99.90;;;;;;5039192;28;20440;-85
2021/07/29 02:58:24;;;;;;;5.40;4.90;;;15.70;99.90;;;;;;5039266;28;20437;-86
2021/07/29 03:00:51;;;;;;;6.37;5.87;;;15.70;99.90;;;;;;5038909;28;20458;-86
2021/07/29 03:03:28;;;;;;;5.30;4.90;;;15.70;99.90;;;;;;5038912;28;20510;-85
2021/07/29 03:05:55;;;;;;;6.67;6.17;;;15.70;99.90;;;;;;5039053;28;20984;-84
2021/07/29 03:08:21;;;;;;;7.03;6.43;;;15.70;99.90;;;;;;5042678;28;20458;-84
2021/07/29 03:10:49;;;;;;;6.63;6.07;;;15.70;99.90;;;;;;5041666;28;20492;-84
2021/07/29 03:13:16;;;;;;;5.43;5.03;;;15.70;99.90;;;;;;5042597;28;20445;-85
2021/07/29 03:15:43;;;;;;;6.40;5.80;;;15.70;99.90;;;;;;5042226;28;20445;-84
2021/07/29 03:18:10;;;;;;;5.53;5.10;;;15.60;99.90;;;;;;5041957;28;20475;-84
2021/07/29 03:20:40;;;;;;;7.07;6.33;;;15.60;99.90;;;;;;5041290;28;20454;-85
2021/07/29 03:23:07;;;;;;;5.53;5.07;;;15.60;99.90;;;;;;5041466;28;20441;-84
2021/07/29 03:25:34;;;;;;;6.30;5.70;;;15.60;99.90;;;;;;5042420;28;20440;-85
2021/07/29 03:28:01;;;;;;;6.57;5.83;;;15.60;99.90;;;;;;5043131;28;20531;-85
2021/07/29 03:30:28;;;;;;;6.47;5.93;;;15.60;99.90;;;;;;5042847;28;20453;-85
2021/07/29 03:32:55;;;;;;;5.93;5.33;;;15.60;99.90;;;;;;5042038;28;20468;-85
2021/07/29 03:35:21;;;;;;;5.83;5.33;;;15.60;99.90;;;;;;5042882;28;20452;-84
2021/07/29 03:37:49;;;;;;;7.17;5.73;;;15.60;99.90;;;;;;5042749;28;20469;-85
2021/07/29 03:40:16;;;;;;;6.93;6.33;;;15.60;99.90;;;;;;5042894;28;20854;-85
2021/07/29 03:42:43;;;;;;;6.77;6.27;;;15.60;99.90;;;;;;5042083;28;20583;-86
2021/07/29 03:45:11;;;;;;;6.03;5.43;;;15.50;99.90;;;;;;5042126;28;20494;-85
2021/07/29 03:47:37;;;;;;;5.47;4.97;;;15.50;99.90;;;;;;5042253;28;21001;-84
2021/07/29 03:50:05;;;;;;;6.67;5.30;;;15.50;99.90;;;;;;5041949;28;20450;-85
2021/07/29 03:52:31;;;;;;;6.37;5.53;;;15.50;99.90;;;;;;5041134;28;20453;-84
2021/07/29 03:54:59;;;;;;;6.63;5.97;;;15.50;99.90;;;;;;5042811;28;20450;-84
2021/07/29 03:57:26;;;;;;;5.00;4.60;;;15.50;99.90;;;;;;5042527;28;20469;-84
2021/07/29 03:59:53;;;;;;;6.10;5.57;;;15.50;99.90;;;;;;5042997;28;20456;-86
2021/07/29 04:02:20;;;;;;;5.30;4.73;;;15.50;99.90;;;;;;5042453;28;20456;-84
2021/07/29 04:04:46;;;;;;;8.37;5.50;;;15.50;99.90;;;;;;5042446;28;20482;-84
2021/07/29 04:07:13;;;;;;;4.90;4.60;;;15.50;99.90;;;;;;5043104;28;20469;-85
2021/07/29 04:09:40;;;;;;;6.20;5.60;;;15.50;99.90;;;;;;5042425;28;20456;-84
2021/07/29 04:12:08;;;;;;;6.20;5.70;;;15.50;99.90;;;;;;5046547;28;20462;-84
2021/07/29 04:14:35;;;;;;;5.63;5.13;;;15.60;99.90;;;;;;5045317;28;20449;-85
2021/07/29 04:17:02;;;;;;;6.30;5.57;;;15.60;99.90;;;;;;5042068;28;20476;-84
2021/07/29 04:19:33;;;;;;;5.97;5.47;;;15.60;99.90;;;;;;5041455;28;20458;-85
2021/07/29 04:22:00;;;;;;;6.70;5.97;;;15.60;99.90;;;;;;5041985;28;20443;-86
2021/07/29 04:24:28;;;;;;;7.37;6.40;;;15.60;99.90;;;;;;5042485;28;20516;-85
2021/07/29 04:26:55;;;;;;;8.63;6.07;;;15.50;99.90;;;;;;5042585;28;20470;-84
2021/07/29 04:29:24;;;;;;;6.50;5.90;;;15.60;99.90;;;;;;5042296;28;20466;-85
2021/07/29 04:31:51;;;;;;;6.20;5.70;;;15.60;99.90;;;;;;5042791;28;20485;-84
2021/07/29 04:34:17;;;;;;;6.33;5.73;;;15.60;99.90;;;;;;5042768;28;20450;-85
2021/07/29 04:36:45;;;;;;;6.50;5.90;;;15.60;99.90;;;;;;5042972;28;20481;-86
2021/07/29 04:39:11;;;;;;;7.57;6.77;;;15.70;99.90;;;;;;5042332;28;20460;-86
2021/07/29 04:41:39;;;;;;;6.53;5.93;;;15.70;99.90;;;;;;5042713;28;20453;-84
2021/07/29 04:44:07;;;;;;;7.03;6.43;;;15.70;99.90;;;;;;5041946;28;20535;-86
2021/07/29 04:46:36;;;;;;;5.10;4.70;;;15.70;99.90;;;;;;5042089;28;20469;-84
2021/07/29 04:49:03;;;;;;;7.03;6.40;;;15.60;99.90;;;;;;5041556;28;20453;-84
2021/07/29 04:51:30;;;;;;;5.80;4.90;;;15.60;99.90;;;;;;5040746;28;20453;-87
2021/07/29 04:53:56;;;;;;;6.47;5.90;;;15.60;99.90;;;;;;5041805;28;20452;-85
2021/07/29 04:56:23;;;;;;;6.70;5.87;;;15.60;99.90;;;;;;5041288;28;20477;-86
2021/07/29 04:58:50;;;;;;;5.13;4.63;;;15.60;99.90;;;;;;5041657;28;20461;-85
2021/07/29 05:01:17;;;;;;;6.60;6.00;;;15.60;99.90;;;;;;5041564;28;20459;-84
2021/07/29 05:03:46;;;;;;;8.23;5.57;;;15.70;99.90;;;;;;5040954;28;20458;-85
2021/07/29 05:06:13;;;;;;;6.60;6.00;;;15.70;99.90;;;;;;5041040;28;20448;-84
2021/07/29 05:08:41;;;;;;;6.07;5.50;;;15.80;99.90;;;;;;5039961;28;20457;-87
2021/07/29 05:11:08;;;;;;;5.77;5.10;;;15.80;99.90;;;;;;5040773;28;20473;-86
2021/07/29 05:13:36;;;;;;;5.97;5.10;;;15.90;99.90;;;;;;5040747;28;20450;-86
2021/07/29 05:16:05;;;;;;;5.37;4.63;;;15.90;99.90;;;;;;5040353;28;20461;-85
2021/07/29 05:18:37;;;;;;;6.20;5.60;;;16.00;99.90;;;;;;5039731;28;20448;-85
2021/07/29 05:21:07;;;;;;;5.13;4.63;;;15.90;99.90;;;;;;5040262;28;20468;-85
2021/07/29 05:23:34;;;;;;;5.23;4.83;;;15.80;99.90;;;;;;5039517;28;20451;-85
2021/07/29 05:26:01;;;;;;;6.03;5.43;;;15.90;99.90;;;;;;5039003;28;20482;-85
2021/07/29 05:28:28;;;;;;;4.50;4.10;;;16.00;99.90;;;;;;5040036;28;20447;-86
2021/07/29 05:30:54;;;;;;;5.97;4.87;;;16.00;99.90;;;;;;5040266;28;20457;-85
2021/07/29 05:33:22;;;;;;;4.37;4.07;;;16.10;99.90;;;;;;5039896;28;20451;-85
2021/07/29 05:35:48;;;;;;;5.33;4.93;;;16.30;99.90;;;;;;5040298;28;20535;-86
2021/07/29 05:38:16;;;;;;;4.37;4.00;;;16.40;99.90;;;;;;5040384;28;20471;-85
2021/07/29 05:40:43;;;;;;;4.70;4.10;;;16.50;99.90;;;;;;5039644;28;20464;-86
2021/07/29 05:43:10;;;;;;;5.70;4.37;;;16.60;99.90;;;;;;5040014;28;20445;-86
2021/07/29 05:45:37;;;;;;;4.80;4.40;;;16.60;99.90;;;;;;5039643;28;20506;-87
2021/07/29 05:48:04;;;;;;;5.83;4.30;;;16.80;99.90;;;;;;5039586;28;20462;-86
2021/07/29 05:50:31;;;;;;;4.23;3.63;;;16.80;99.90;;;;;;5039663;28;20454;-86
2021/07/29 05:53:00;;;;;;;4.43;4.10;;;17.00;99.90;;;;;;5038588;28;20458;-85
2021/07/29 05:55:28;;;;;;;4.30;3.90;;;17.10;99.90;;;;;;5039861;28;20858;-85
2021/07/29 05:57:55;;;;;;;5.13;4.63;;;17.30;99.90;;;;;;5040701;28;20467;-86
2021/07/29 06:00:21;;;;;;;4.10;3.73;;;17.40;99.90;;;;;;5039833;28;20469;-86
2021/07/29 06:02:48;;;;;;;4.83;4.40;;;17.50;99.90;;;;;;5038752;28;20451;-85
2021/07/29 06:05:15;;;;;;;4.13;3.73;;;17.70;99.90;;;;;;5039264;28;20480;-85
2021/07/29 06:07:41;;;;;;;5.20;3.90;;;17.80;99.90;;;;;;5039710;28;20480;-85
2021/07/29 06:10:10;;;;;;;4.80;3.63;;;17.80;99.90;;;;;;5039301;28;20452;-86
2021/07/29 06:12:38;;;;;;;3.80;3.50;;;18.00;99.90;;;;;;5039409;28;20506;-86
2021/07/29 06:15:06;;;;;;;5.43;3.70;;;18.10;99.90;;;;;;5040296;28;20443;-86
2021/07/29 06:17:36;;;;;;;5.47;3.90;;;18.30;99.90;;;;;;5039979;28;20475;-86
2021/07/29 06:20:06;;;;;;;4.70;4.23;;;18.40;99.90;;;;;;5041448;28;20563;-86
2021/07/29 06:22:33;;;;;;;3.33;3.13;;;18.50;99.90;;;;;;5042530;28;20531;-85
2021/07/29 06:25:00;;;;;;;3.67;3.37;;;18.60;99.90;;;;;;5040615;28;20487;-84
2021/07/29 06:27:27;;;;;;;4.23;3.93;;;18.70;99.90;;;;;;5038957;28;20480;-85
2021/07/29 06:29:57;;;;;;;3.90;3.60;;;18.80;99.90;;;;;;5037856;28;20462;-86
2021/07/29 06:32:24;;;;;;;3.50;3.30;;;19.00;99.90;;;;;;5035682;28;20490;-86
2021/07/29 06:34:54;;;;;;;2.80;2.70;;;19.10;99.90;;;;;;5036035;28;20459;-85
2021/07/29 06:37:21;;;;;;;4.37;3.93;;;19.20;99.90;;;;;;5028204;28;21781;-86
2021/07/29 06:39:48;;;;;;;5.50;4.03;;;19.30;99.90;;;;;;5026195;28;20444;-86
2021/07/29 06:42:14;;;;;;;2.90;2.70;;;19.40;99.90;;;;;;5018291;28;20441;-85
2021/07/29 06:44:42;;;;;;;4.17;3.00;;;19.30;99.90;;;;;;5031718;28;20495;-85
2021/07/29 06:47:13;;;;;;;5.03;3.77;;;19.30;99.90;;;;;;5035973;28;20468;-84
2021/07/29 06:49:40;;;;;;;3.23;3.03;;;19.30;99.90;;;;;;5031970;28;20447;-86
2021/07/29 06:52:07;;;;;;;3.53;3.23;;;19.40;99.90;;;;;;5032221;28;20495;-84
2021/07/29 06:54:34;;;;;;;4.13;3.77;;;19.40;99.90;;;;;;5036620;28;20441;-84
2021/07/29 06:57:00;;;;;;;3.93;3.63;;;19.40;99.90;;;;;;5031959;28;20469;-85
2021/07/29 06:59:27;;;;;;;3.77;3.10;;;19.50;99.90;;;;;;5035133;28;20456;-85
2021/07/29 07:01:54;;;;;;;3.70;3.47;;;19.50;99.90;;;;;;5035091;28;20449;-85
2021/07/29 07:04:22;;;;;;;3.63;3.00;;;19.60;99.90;;;;;;5032596;28;20588;-86
2021/07/29 07:06:48;;;;;;;3.70;3.37;;;19.70;99.90;;;;;;5035228;28;20468;-85
2021/07/29 07:09:15;;;;;;;4.23;3.93;;;19.80;99.90;;;;;;5038274;28;20461;-85
2021/07/29 07:11:42;;;;;;;4.40;3.13;;;19.90;99.90;;;;;;5037864;28;20464;-85
2021/07/29 07:14:21;;;;;;;3.07;2.77;;;19.90;99.90;;;;;;5037415;28;20445;-86
2021/07/29 08:41:25;;;;;;;;;;;;;;;;;;;;;
2021/07/29 08:52:07;;;;;;;;;;;;;;;;;;;;;
2021/07/29 08:59:15;;;;;;;;;;;;;;;;;;;;;
2021/07/29 11:09:30;;;;;;;5.30;4.70;;;24.30;90.20;;;;;;5059690;23;20841;-85
2021/07/29 11:11:58;;;;;;;4.60;4.20;;;24.50;89.60;;;;;;5037917;28;20513;-85
2021/07/29 11:14:26;;;;;;;4.00;3.70;;;24.70;88.70;;;;;;5038531;28;20453;-85
2021/07/29 11:16:56;;;;;;;4.93;4.03;;;24.90;88.00;;;;;;5042897;28;20448;-85
2021/07/29 11:19:25;;;;;;;4.57;4.17;;;24.90;87.60;;;;;;5038624;28;20823;-87
2021/07/29 11:22:10;;;;;;;4.30;4.00;;;24.50;88.10;;;;;;5033189;28;20449;-87
2021/07/29 11:24:38;;;;;;;4.43;4.13;;;24.60;88.10;;;;;;5031726;28;20477;-86
2021/07/29 11:27:10;;;;;;;4.17;3.80;;;24.80;89.60;;;;;;5034851;28;20832;-86
2021/07/29 11:29:53;;;;;;;4.30;4.00;;;25.10;89.50;;;;;;5037667;28;20827;-87
2021/07/29 11:32:21;;;;;;;4.40;4.10;;;25.50;86.40;;;;;;5037975;28;20462;-86
2021/07/29 11:34:56;;;;;;;7.77;4.73;;;26.00;86.30;;;;;;5039028;28;20454;-88
2021/07/29 11:37:41;;;;;;;4.90;4.30;;;26.60;84.10;;;;;;5036068;28;21112;-87
2021/07/29 11:40:17;;;;;;;4.90;4.50;;;26.90;83.50;;;;;;5034812;28;20437;-86
2021/07/29 11:42:44;;;;;;;5.00;4.60;;;27.30;78.40;;;;;;5035149;28;20443;-88
2021/07/29 11:45:38;;;;;;;4.47;4.17;;;27.40;77.60;;;;;;5034679;28;20467;-87
2021/07/29 11:48:37;;;;;;;4.17;3.77;;;26.90;79.20;;;;;;5034705;28;20841;-88
2021/07/29 11:51:16;;;;;;;5.10;3.70;;;26.70;77.80;;;;;;5028767;28;20491;-89
2021/07/29 11:53:45;;;;;;;4.60;4.20;;;26.70;79.50;;;;;;5021070;28;20473;-87
2021/07/29 11:56:17;;;;;;;4.30;4.00;;;27.10;79.70;;;;;;5018462;28;20444;-86
2021/07/29 11:58:57;;;;;;;3.33;3.10;;;27.30;76.60;;;;;;5033903;28;20469;-87
2021/07/29 12:01:24;;;;;;;4.47;4.07;;;27.70;74.50;;;;;;5024219;28;20506;-85
2021/07/29 12:03:53;;;;;;;4.03;3.70;;;27.90;75.20;;;;;;5035687;28;20459;-86
2021/07/29 12:06:20;;;;;;;4.67;3.60;;;28.30;74.20;;;;;;5032470;28;20507;-86
2021/07/29 12:08:50;;;;;;;3.87;3.57;;;28.70;75.10;;;;;;5033213;28;20477;-86
2021/07/29 12:11:20;;;;;;;4.07;3.77;;;29.30;72.20;;;;;;5033375;28;20827;-86
2021/07/29 12:13:47;;;;;;;4.57;3.80;;;29.50;70.20;;;;;;5033502;28;20458;-86
2021/07/29 12:16:14;;;;;;;4.53;4.20;;;29.70;67.20;;;;;;5048127;28;20441;-86
2021/07/29 12:18:41;;;;;;;4.70;4.30;;;29.70;66.50;;;;;;5058213;28;20482;-87
2021/07/29 12:21:08;;;;;;;4.10;3.80;;;29.60;65.50;;;;;;5052020;28;20544;-86
2021/07/29 12:23:35;;;;;;;3.87;3.50;;;29.70;65.20;;;;;;5035923;28;20878;-86
2021/07/29 12:26:14;;;;;;;5.20;4.40;;;30.00;66.50;;;;;;5053185;28;20545;-86
2021/07/29 12:28:43;;;;;;;4.53;4.13;;;30.10;64.50;;;;;;5053242;28;20481;-86
2021/07/29 12:31:23;;;;;;;4.30;4.00;;;30.20;64.30;;;;;;5032512;28;20467;-86
2021/07/29 12:33:52;;;;;;;4.47;4.17;;;30.00;64.30;;;;;;5030696;28;20445;-85
2021/07/29 12:36:20;;;;;;;6.67;4.37;;;28.90;64.00;;;;;;5033902;28;20457;-86
2021/07/29 12:39:23;;;;;;;4.93;4.57;;;28.50;64.60;;;;;;5033382;28;20476;-87
2021/07/29 12:41:51;;;;;;;4.83;4.43;;;27.50;66.80;;;;;;4982286;28;20544;-86
2021/07/29 12:44:20;;;;;;;5.03;4.53;;;27.00;68.50;;;;;;5034236;28;20445;-86
2021/07/29 12:46:48;;;;;;;5.10;4.80;;;27.10;70.80;;;;;;5034418;28;20505;-86
2021/07/29 12:49:16;;;;;;;3.87;3.57;;;27.20;71.30;;;;;;5034243;28;20473;-85
2021/07/29 12:51:45;;;;;;;4.50;4.17;;;27.10;70.50;;;;;;5033510;28;20508;-84
2021/07/29 12:54:13;;;;;;;3.97;3.57;;;27.60;68.60;;;;;;5036774;28;20466;-84
2021/07/29 12:56:40;;;;;;;4.83;4.40;;;28.30;69.70;;;;;;5033455;28;20945;-86
2021/07/29 12:59:09;;;;;;;4.23;3.90;;;29.10;67.50;;;;;;5033507;28;20481;-86
2021/07/29 13:01:38;;;;;;;4.73;4.40;;;29.80;65.60;;;;;;5032495;28;20460;-86
2021/07/29 13:04:05;;;;;;;4.63;4.23;;;30.70;64.60;;;;;;5033169;28;20445;-86
2021/07/29 13:06:32;;;;;;;4.33;4.03;;;30.90;61.40;;;;;;5032939;28;20485;-88
2021/07/29 13:08:59;;;;;;;4.10;3.80;;;31.40;59.10;;;;;;5025099;28;20498;-88
2021/07/29 13:11:29;;;;;;;4.80;4.50;;;31.70;58.70;;;;;;5032423;28;20455;-88
2021/07/29 13:13:59;;;;;;;4.57;4.27;;;31.20;57.60;;;;;;5033077;28;20464;-88
2021/07/29 13:16:28;;;;;;;4.33;4.00;;;30.80;58.00;;;;;;5033238;28;20499;-86
2021/07/29 13:18:55;;;;;;;4.10;3.70;;;30.40;58.40;;;;;;5032668;28;21088;-86
2021/07/29 13:21:22;;;;;;;5.30;4.90;;;30.10;62.80;;;;;;5032421;28;20480;-88
2021/07/29 13:23:49;;;;;;;4.57;4.17;;;30.40;60.50;;;;;;5032942;28;20464;-86
2021/07/29 13:26:15;;;;;;;5.13;4.73;;;31.00;60.90;;;;;;5032748;28;20515;-85
2021/07/29 13:28:42;;;;;;;4.13;3.83;;;31.30;58.80;;;;;;5032737;28;20475;-85
2021/07/29 13:31:09;;;;;;;4.00;3.70;;;31.10;58.90;;;;;;5032696;28;20445;-86
2021/07/29 13:33:37;;;;;;;4.20;3.90;;;31.30;58.50;;;;;;5031746;28;20464;-86
2021/07/29 13:36:04;;;;;;;4.43;4.03;;;30.70;57.50;;;;;;5032523;28;20477;-86
2021/07/29 13:38:31;;;;;;;3.93;3.60;;;30.00;58.90;;;;;;5032609;28;20476;-87
2021/07/29 13:40:58;;;;;;;4.30;4.00;;;30.20;59.60;;;;;;5032281;28;20450;-86
2021/07/29 13:43:24;;;;;;;4.37;4.00;;;29.80;58.40;;;;;;5031783;28;20453;-87
2021/07/29 13:45:51;;;;;;;4.23;3.90;;;29.50;59.50;;;;;;5031989;28;20476;-88
2021/07/29 13:48:18;;;;;;;4.30;3.97;;;29.40;59.70;;;;;;5032192;28;20457;-87
2021/07/29 13:50:46;;;;;;;4.97;3.50;;;28.60;59.80;;;;;;5032618;28;20463;-87
2021/07/29 13:53:13;;;;;;;4.43;4.10;;;28.00;62.50;;;;;;5031456;28;20487;-86
2021/07/29 13:55:40;;;;;;;4.50;4.20;;;27.60;65.00;;;;;;5032314;28;20464;-87
2021/07/29 13:58:07;;;;;;;4.50;4.13;;;27.40;65.30;;;;;;5031996;28;21028;-86
2021/07/29 14:00:34;;;;;;;4.37;4.00;;;27.10;65.10;;;;;;5032051;28;20444;-86
2021/07/29 14:03:01;;;;;;;4.53;4.13;;;27.10;66.70;;;;;;5031779;28;20454;-86
2021/07/29 14:05:30;;;;;;;4.80;4.40;;;27.00;66.90;;;;;;5031960;28;20457;-87
2021/07/29 14:07:58;;;;;;;4.60;4.20;;;27.10;70.20;;;;;;5032000;28;20874;-86
2021/07/29 14:10:25;;;;;;;4.97;4.47;;;27.20;67.70;;;;;;5032135;28;20461;-87
2021/07/29 14:12:52;;;;;;;3.97;3.67;;;27.30;67.20;;;;;;5031539;28;20460;-87
2021/07/29 14:15:19;;;;;;;4.00;3.70;;;27.50;67.20;;;;;;5031754;28;20521;-87
2021/07/29 14:17:50;;;;;;;4.03;3.73;;;28.00;69.30;;;;;;5031990;28;20471;-88
2021/07/29 14:20:21;;;;;;;4.27;3.90;;;29.00;64.90;;;;;;5032036;28;20457;-87
2021/07/29 14:23:07;;;;;;;5.07;3.90;;;29.40;63.40;;;;;;5039739;28;20485;-88
2021/07/29 14:25:37;;;;;;;5.60;4.30;;;29.30;61.90;;;;;;5048338;28;20451;-86
2021/07/29 14:28:08;;;;;;;4.03;3.73;;;29.40;61.90;;;;;;5040450;28;20480;-86
2021/07/29 14:31:11;;;;;;;3.87;3.57;;;29.80;61.80;;;;;;5051997;28;20472;-87
2021/07/29 14:33:52;;;;;;;3.90;3.60;;;30.40;60.70;;;;;;4971225;28;20849;-87
2021/07/29 14:36:26;;;;;;;3.87;3.57;;;31.10;58.60;;;;;;5051764;28;20931;-87
2021/07/29 14:38:53;;;;;;;4.10;3.80;;;31.90;57.10;;;;;;5051760;28;20850;-87
2021/07/29 14:55:04;;;;;;;4.07;3.67;;;33.70;52.50;;;;;;4913342;29;20473;-87
2021/07/29 14:57:54;;;;;;;3.87;3.57;;;33.90;51.80;;;;;;4913126;29;20478;-87
2021/07/29 16:08:08;;;;;;;3.77;3.50;;;32.80;52.40;;;;;;5034657;28;20507;-88
2021/07/29 16:10:35;;;;;;;3.77;3.37;;;33.00;52.20;;;;;;5039172;28;20553;-87
2021/07/29 16:13:06;;;;;;;4.00;3.77;;;33.00;51.20;;;;;;5058138;28;20473;-90
2021/07/29 16:15:41;;;;;;;4.10;3.80;;;33.10;50.70;;;;;;5058140;28;20440;-88
2021/07/29 16:19:15;;;;;;;;;;;;;;;;;;;;;
2021/07/29 16:25:28;;;;;;;4.27;3.97;;;33.20;50.60;;;;;;4987330;28;20957;-87
2021/07/29 16:34:24;;;;;;;3.60;3.30;;;35.00;48.10;;;;;;5025465;28;20445;-86
2021/07/29 16:36:51;;;;;;;4.43;4.13;;;35.50;47.30;;;;;;5033205;28;20504;-86
2021/07/29 16:42:31;;;;;;;3.87;3.50;;;35.90;46.90;;;;;;5007098;28;20453;-86
2021/07/29 16:45:05;;;;;;;3.50;3.30;;;35.90;43.40;;;;;;5033205;28;20540;-86
2021/07/29 16:47:32;;;;;;;3.90;3.60;;;35.30;44.20;;;;;;5032766;28;20939;-86
2021/07/29 16:50:17;;;;;;;3.80;3.37;;;34.60;44.60;;;;;;5033101;28;20469;-86
2021/07/29 16:52:47;;;;;;;4.77;4.20;;;33.30;46.60;;;;;;5053350;28;20456;-86
2021/07/29 16:55:20;;;;;;;4.90;4.60;;;33.20;46.70;;;;;;5053507;28;20522;-86
2021/07/29 16:58:17;;;;;;;4.50;4.10;;;32.80;46.80;;;;;;5053947;28;20867;-86
2021/07/29 17:01:12;;;;;;;3.90;3.60;;;32.60;48.00;;;;;;5031819;28;20821;-87
2021/07/29 17:03:39;;;;;;;4.50;4.03;;;32.50;48.50;;;;;;5041901;28;20456;-87
2021/07/29 17:09:01;;;;;;;3.60;3.40;;;33.90;49.10;;;;;;5024094;28;20560;-88
2021/07/29 17:11:32;;;;;;;4.30;3.97;;;34.80;48.60;;;;;;5033141;28;20456;-88
2021/07/29 17:14:03;;;;;;;4.47;3.80;;;35.60;47.60;;;;;;5033631;28;20440;-89
2021/07/29 17:16:42;;;;;;;4.63;4.17;;;36.00;47.20;;;;;;5033487;28;20461;-89
2021/07/29 17:19:12;;;;;;;3.83;3.43;;;36.20;46.40;;;;;;5033097;28;20480;-86
2021/07/29 17:21:39;;;;;;;3.90;3.60;;;35.90;46.10;;;;;;5033258;28;20449;-87
2021/07/29 17:24:08;;;;;;;4.73;3.67;;;34.90;46.00;;;;;;5033459;28;20457;-88
2021/07/29 17:30:00;;;;;;;7.13;6.60;;;33.70;47.80;;;;;;5034587;28;20394;-86
2021/07/29 17:32:26;;;;;;;4.40;4.10;;;32.50;50.00;;;;;;5033316;28;20455;-84
2021/07/29 17:35:18;;;;;;;4.43;4.07;;;31.60;51.10;;;;;;5033228;28;20872;-85
2021/07/29 17:58:41;;;;;;;3.47;3.27;;;26.30;62.60;;;;;;4710997;29;20505;-85
2021/07/29 18:01:09;;;;;;;3.97;3.67;;;26.20;64.40;;;;;;4854450;29;20470;-85
2021/07/29 18:03:36;;;;;;;4.00;3.70;;;26.10;64.20;;;;;;4959789;28;20545;-84
2021/07/29 18:06:04;;;;;;;3.27;3.03;;;26.20;64.60;;;;;;5037061;28;20897;-84
2021/07/29 18:08:30;;;;;;;3.97;3.67;;;26.30;64.40;;;;;;5035996;28;20510;-84
2021/07/29 18:10:57;;;;;;;3.70;3.40;;;26.10;65.00;;;;;;5036871;28;20817;-84
2021/07/29 18:13:24;;;;;;;3.77;3.57;;;26.20;65.30;;;;;;5037217;28;20990;-84
2021/07/29 18:15:52;;;;;;;4.90;4.10;;;25.90;66.00;;;;;;5035914;28;20507;-85
2021/07/29 18:18:19;;;;;;;3.50;3.20;;;25.80;66.80;;;;;;5038147;28;20499;-84
2021/07/29 18:20:46;;;;;;;3.77;3.53;;;25.70;66.90;;;;;;5038447;28;20452;-83
2021/07/29 18:23:13;;;;;;;4.03;3.67;;;25.50;67.90;;;;;;5037129;28;20463;-83
2021/07/29 18:25:40;;;;;;;4.10;3.70;;;25.30;68.30;;;;;;5039023;28;20726;-85
2021/07/29 18:28:07;;;;;;;6.27;3.67;;;25.10;68.90;;;;;;5038875;28;20482;-84
2021/07/29 18:30:36;;;;;;;5.20;4.10;;;25.10;69.30;;;;;;5042166;28;20910;-84
2021/07/29 18:33:05;;;;;;;4.10;3.80;;;25.00;70.20;;;;;;5049208;28;20429;-85
2021/07/29 18:35:32;;;;;;;4.40;4.10;;;25.00;70.40;;;;;;5050777;28;20516;-84
2021/07/29 18:37:59;;;;;;;4.30;3.90;;;25.00;70.80;;;;;;5053881;28;20493;-83
2021/07/29 18:40:25;;;;;;;4.00;3.70;;;25.00;70.90;;;;;;5056012;28;20437;-83
2021/07/29 18:42:52;;;;;;;3.57;3.27;;;24.80;71.40;;;;;;5055106;28;20451;-82
2021/07/29 18:45:19;;;;;;;5.60;4.07;;;24.40;71.50;;;;;;5052896;28;20433;-84
2021/07/29 18:47:46;;;;;;;3.70;3.40;;;24.00;72.70;;;;;;5054528;28;20457;-84
2021/07/29 18:50:14;;;;;;;7.10;4.10;;;23.70;73.70;;;;;;5055758;28;20441;-83